CDT,Max TemperatureF,Mean TemperatureF,Min TemperatureF,Max Dew PointF,MeanDew PointF,Min DewpointF,Max Humidity, Mean Humidity, Min Humidity, Max Sea Level PressureIn, Mean Sea Level PressureIn, Min Sea Level PressureIn, Max VisibilityMiles, Mean VisibilityMiles, Min VisibilityMiles, Max Wind SpeedMPH, Mean Wind SpeedMPH, Max Gust SpeedMPH,PrecipitationIn, CloudCover, Events, WindDirDegrees
2013-9-1,104,86,69,70,62,50,83,48,17,29.90,29.84,29.79,10,10,10,14,2,20,0.00,1,Rain-Thunderstorm,23
2013-9-2,95,86,77,72,66,59,78,56,34,30.01,29.94,29.88,10,10,10,10,4,16,0.00,3,Rain-Thunderstorm,37
2013-9-3,93,81,69,61,57,45,73,47,19,30.04,29.99,29.93,10,10,10,14,4,17,0.00,1,,41
2013-9-4,96,82,69,66,60,54,73,49,25,30.09,30.04,30.00,10,10,10,12,4,,0.00,0,,90
2013-9-5,95,83,71,63,59,54,69,47,25,30.14,30.08,30.03,10,10,10,9,3,,0.00,1,,108
2013-9-6,96,82,69,61,58,54,68,46,23,30.11,30.04,29.97,10,10,10,9,2,,0.00,0,,105
2013-9-7,96,82,69,64,60,55,73,48,26,30.04,29.98,29.92,10,10,10,12,2,17,0.00,0,,201
2013-9-8,96,82,68,66,60,52,88,51,22,30.00,29.95,29.88,10,10,10,12,2,18,0.00,0,,176
2013-9-9,93,80,68,64,59,52,83,51,24,30.01,29.96,29.92,10,10,10,14,3,20,0.00,1,,186
2013-9-10,91,81,71,66,59,50,78,48,26,30.12,30.05,29.97,10,10,10,12,4,18,0.00,0,,174
2013-9-11,93,80,66,64,59,54,78,52,30,30.15,30.09,30.02,10,10,10,10,2,,0.00,0,,184
2013-9-12,95,82,69,66,63,57,83,57,28,30.10,30.04,29.97,10,10,7,9,2,10,0.00,1,,71
2013-9-13,93,81,69,68,65,57,88,61,30,30.02,29.97,29.89,10,10,10,15,4,23,0.00,1,Thunderstorm,67
2013-9-14,89,79,69,66,57,50,83,51,31,30.03,29.96,29.91,10,10,10,14,6,17,0.00,1,,122
2013-9-15,93,80,68,64,58,52,61,48,34,30.05,30.00,29.96,10,10,10,10,5,16,0.00,1,,158
2013-9-16,91,80,68,64,60,55,83,52,29,30.13,30.06,30.00,10,10,10,9,2,,0.00,1,,81
2013-9-17,95,84,73,64,60,54,65,50,25,30.09,30.03,29.97,10,10,10,10,3,18,0.00,2,Thunderstorm,135
2013-9-18,95,85,75,66,62,55,73,50,28,30.02,29.96,29.88,10,10,10,15,3,22,0.00,1,,189
2013-9-19,91,80,69,68,64,59,94,58,34,29.99,29.94,29.89,10,10,10,14,4,18,0.02,2,Rain,196
2013-9-20,71,68,62,68,65,55,94,87,73,29.99,29.94,29.92,10,10,5,10,4,16,0.24,5,Rain,35
2013-9-21,82,70,57,55,45,32,82,51,17,30.03,29.97,29.90,10,10,10,15,6,22,0.00,0,,43
2013-9-22,82,66,50,50,47,37,94,55,21,29.97,29.89,29.82,10,10,10,10,2,16,0.00,0,,158
2013-9-23,82,66,51,54,49,45,94,55,26,29.89,29.84,29.76,10,10,10,13,3,20,0.00,0,,162
2013-9-24,89,72,55,55,44,32,94,46,13,29.97,29.91,29.86,10,10,10,13,2,20,0.00,0,,353
2013-9-25,91,71,51,52,45,37,82,46,15,29.92,29.85,29.78,10,10,7,8,1,,0.00,0,,173
2013-9-26,95,78,62,55,52,48,68,42,23,29.89,29.84,29.80,10,10,10,15,3,21,0.00,0,,179
2013-9-27,89,76,64,68,61,55,83,58,40,29.94,29.89,29.84,10,10,10,17,5,24,0.00,2,,169
2013-9-28,78,70,62,72,64,55,100,80,61,30.09,29.96,29.85,10,9,1,14,8,24,0.89,7,Rain-Thunderstorm,133
2013-9-29,78,66,53,55,49,41,94,61,26,30.09,30.02,29.93,10,10,2,12,3,,0.00,0,,22
2013-9-30,84,67,50,55,49,43,100,62,23,29.96,29.88,29.82,10,10,7,10,1,,0.00,0,,175